createdAt,value
2019-04-27T00:04:16.201Z,24.47
2019-04-27T00:09:15.152Z,24.70
2019-04-27T00:14:14.997Z,24.13
2019-04-27T00:19:17.673Z,23.47
2019-04-27T00:24:15.628Z,23.20
2019-04-27T00:29:11.581Z,24.10
2019-04-27T00:34:08.327Z,24.57
2019-04-27T00:39:10.024Z,23.63
2019-04-27T00:44:06.452Z,22.43
2019-04-27T00:49:03.720Z,23.20
2019-04-27T00:53:59.899Z,21.17
2019-04-27T00:59:13.752Z,20.57
2019-04-27T01:04:13.509Z,19.70
2019-04-27T01:09:11.383Z,19.40
2019-04-27T01:14:07.305Z,22.40
2019-04-27T01:19:03.289Z,20.67
2019-04-27T01:23:59.200Z,22.70
2019-04-27T01:29:02.857Z,21.53
2019-04-27T01:33:59.062Z,21.97
2019-04-27T01:38:55.000Z,21.77
2019-04-27T01:43:50.920Z,21.07
2019-04-27T01:48:48.893Z,19.50
2019-04-27T01:53:44.895Z,21.50
2019-04-27T01:58:40.891Z,20.07
2019-04-27T02:03:44.913Z,18.37
2019-04-27T02:08:40.946Z,19.63
2019-04-27T02:13:36.871Z,19.87
2019-04-27T02:18:37.455Z,17.77
2019-04-27T02:23:30.609Z,17.40
2019-04-27T02:28:45.078Z,18.37
2019-04-27T02:33:42.918Z,17.43
2019-04-27T02:38:40.534Z,18.33
2019-04-27T02:43:44.528Z,17.80
2019-04-27T02:48:56.003Z,15.53
2019-04-27T02:53:54.323Z,15.20
2019-04-27T02:58:50.332Z,16.90
2019-04-27T03:03:46.543Z,16.43
2019-04-27T03:08:42.919Z,15.87
2019-04-27T03:13:51.556Z,14.40
2019-04-27T03:19:14.349Z,15.03
2019-04-27T03:24:01.114Z,14.43
2019-04-27T03:28:57.025Z,14.77
2019-04-27T03:33:59.155Z,14.17
2019-04-27T03:38:50.964Z,14.57
2019-04-27T03:43:46.878Z,14.17
2019-04-27T03:48:42.892Z,13.77
2019-04-27T03:53:49.891Z,14.67
2019-04-27T03:58:50.703Z,14.53
2019-04-27T04:03:46.620Z,12.83
2019-04-27T04:08:42.534Z,12.90
2019-04-27T04:13:40.355Z,11.73
2019-04-27T04:18:55.552Z,13.30
2019-04-27T04:23:52.039Z,13.20
2019-04-27T04:28:49.977Z,12.17
2019-04-27T04:33:49.203Z,12.40
2019-04-27T04:38:45.076Z,11.83
2019-04-27T04:43:43.111Z,11.80
2019-04-27T04:48:40.545Z,11.50
2019-04-27T04:53:36.576Z,10.83
2019-04-27T04:58:32.485Z,10.97
2019-04-27T05:03:28.698Z,10.50
2019-04-27T05:08:24.831Z,11.10
2019-04-27T05:13:20.749Z,11.00
2019-04-27T05:18:16.693Z,9.97
2019-04-27T05:23:12.615Z,9.17
2019-04-27T05:28:09.714Z,9.57
2019-04-27T05:33:06.291Z,11.57
2019-04-27T05:38:07.260Z,9.00
2019-04-27T05:43:00.161Z,8.43
2019-04-27T05:47:58.971Z,7.23
2019-04-27T05:52:55.814Z,6.80
2019-04-27T05:57:51.729Z,5.30
2019-04-27T06:02:48.750Z,6.80
2019-04-27T06:07:44.875Z,6.10
2019-04-27T06:12:40.792Z,7.20
2019-04-27T06:17:38.513Z,5.17
2019-04-27T06:22:34.529Z,5.30
2019-04-27T06:27:30.983Z,4.53
2019-04-27T06:32:29.630Z,5.27
2019-04-27T06:37:26.707Z,4.20
2019-04-27T06:42:22.724Z,4.50
2019-04-27T06:47:19.094Z,4.47
2019-04-27T06:52:15.172Z,3.93
2019-04-27T06:57:11.088Z,4.53
2019-04-27T07:02:08.612Z,3.63
2019-04-27T07:07:07.128Z,4.13
2019-04-27T07:12:03.044Z,3.50
2019-04-27T07:16:59.377Z,3.27
2019-04-27T07:21:56.125Z,2.70
2019-04-27T07:26:52.106Z,3.23
2019-04-27T07:31:49.561Z,3.37
2019-04-27T07:36:45.876Z,2.17
2019-04-27T07:41:42.846Z,2.90
2019-04-27T07:46:39.951Z,2.20
2019-04-27T07:51:39.334Z,2.70
2019-04-27T07:56:35.471Z,2.50
2019-04-27T08:01:31.387Z,3.67
2019-04-27T08:06:28.950Z,3.30
2019-04-27T08:11:25.037Z,3.10
2019-04-27T08:16:20.955Z,3.53
2019-04-27T08:21:18.783Z,3.33
2019-04-27T08:26:16.601Z,3.60
2019-04-27T08:31:18.675Z,4.13
2019-04-27T08:36:14.798Z,5.00
2019-04-27T08:41:10.716Z,3.17
2019-04-27T08:46:06.635Z,3.10
2019-04-27T08:51:04.962Z,3.67
2019-04-27T08:56:00.967Z,4.50
2019-04-27T09:00:56.893Z,4.40
2019-04-27T09:05:52.913Z,3.90
2019-04-27T09:10:53.508Z,4.10
2019-04-27T09:15:51.335Z,4.43
2019-04-27T09:20:55.132Z,4.57
2019-04-27T09:25:51.013Z,4.93
2019-04-27T09:30:47.049Z,4.73
2019-04-27T09:35:42.988Z,5.20
2019-04-27T09:40:38.898Z,4.30
2019-04-27T09:45:34.825Z,2.50
2019-04-27T09:50:35.941Z,3.90
2019-04-27T09:55:31.740Z,3.20
2019-04-27T10:00:27.932Z,4.70
2019-04-27T10:05:23.880Z,4.60
2019-04-27T10:10:19.895Z,4.43
2019-04-27T10:15:16.349Z,5.30
2019-04-27T10:20:12.325Z,4.97
2019-04-27T10:25:10.242Z,4.10
2019-04-27T10:30:06.968Z,5.40
2019-04-27T10:35:05.795Z,4.90
2019-04-27T10:40:03.660Z,4.77
2019-04-27T10:44:59.587Z,5.60
2019-04-27T10:49:56.692Z,6.03
2019-04-27T10:54:52.822Z,3.87
2019-04-27T10:59:48.735Z,3.77
2019-04-27T11:04:49.358Z,6.23
2019-04-27T11:09:45.274Z,6.00
2019-04-27T11:14:41.197Z,5.33
2019-04-27T11:19:37.221Z,3.67
2019-04-27T11:24:33.143Z,3.40
2019-04-27T11:29:29.064Z,4.07
2019-04-27T11:34:26.892Z,3.80
2019-04-27T11:39:23.317Z,3.70
2019-04-27T11:44:19.361Z,3.10
2019-04-27T11:49:15.680Z,3.40
2019-04-27T11:54:11.782Z,3.20
2019-04-27T11:59:07.699Z,3.43
2019-04-27T12:04:03.616Z,2.90
2019-04-27T12:08:59.536Z,3.33
2019-04-27T12:13:56.147Z,3.30
2019-04-27T12:18:52.276Z,3.17
2019-04-27T12:23:48.195Z,4.87
2019-04-27T12:28:49.047Z,3.20
2019-04-27T12:33:46.016Z,3.60
2019-04-27T12:38:42.146Z,5.37
2019-04-27T12:43:38.167Z,3.50
2019-04-27T12:48:37.063Z,3.10
2019-04-27T12:53:48.335Z,3.33
2019-04-27T12:58:47.549Z,1.70
2019-04-27T13:03:43.675Z,2.10
2019-04-27T13:08:39.588Z,1.73
2019-04-27T13:13:36.817Z,2.00
2019-04-27T13:18:32.995Z,4.60
2019-04-27T13:23:28.912Z,3.87
2019-04-27T13:28:25.657Z,3.63
2019-04-27T13:33:21.823Z,3.30
2019-04-27T13:38:18.264Z,4.00
2019-04-27T13:43:19.119Z,4.87
2019-04-27T13:48:29.354Z,3.10
2019-04-27T13:53:26.279Z,3.90
2019-04-27T13:58:22.284Z,4.70
2019-04-27T14:03:20.861Z,3.27
2019-04-27T14:08:16.078Z,4.53
2019-04-27T14:13:12.059Z,3.57
2019-04-27T14:18:08.463Z,4.00
2019-04-27T14:23:21.437Z,3.70
2019-04-27T14:28:18.319Z,4.00
2019-04-27T14:33:14.392Z,3.93
2019-04-27T14:38:10.382Z,4.10
2019-04-27T14:43:09.519Z,3.60
2019-04-27T14:48:08.240Z,4.00
2019-04-27T14:53:04.611Z,4.67
2019-04-27T14:58:00.539Z,3.80
2019-04-27T15:02:56.478Z,4.63
2019-04-27T15:07:52.435Z,4.63
2019-04-27T15:12:48.446Z,6.40
2019-04-27T15:17:44.476Z,6.73
2019-04-27T15:22:40.602Z,6.03
2019-04-27T15:27:40.308Z,5.60
2019-04-27T15:32:42.144Z,6.10
2019-04-27T15:37:46.346Z,5.73
2019-04-27T15:42:52.916Z,6.60
2019-04-27T15:47:54.079Z,6.97
2019-04-27T15:52:45.581Z,7.20
2019-04-27T15:57:42.594Z,8.00
2019-04-27T16:02:39.382Z,5.90
2019-04-27T16:07:35.400Z,6.77
2019-04-27T16:12:31.316Z,5.40
2019-04-27T16:17:30.341Z,6.33
2019-04-27T16:22:26.884Z,4.20
2019-04-27T16:27:25.891Z,4.83
2019-04-27T16:32:20.799Z,5.40
2019-04-27T16:37:22.331Z,3.70
2019-04-27T16:42:18.633Z,3.23
2019-04-27T16:47:18.840Z,3.47
2019-04-27T16:52:15.909Z,3.30
2019-04-27T16:57:10.603Z,2.80
2019-04-27T17:02:08.153Z,3.00
2019-04-27T17:07:04.422Z,3.27
2019-04-27T17:12:00.340Z,2.50
2019-04-27T17:17:18.070Z,3.50
2019-04-27T17:22:16.258Z,2.97
2019-04-27T17:27:16.406Z,2.80
2019-04-27T17:32:13.216Z,2.03
2019-04-27T17:37:09.242Z,3.07
2019-04-27T17:42:05.255Z,2.80
2019-04-27T17:47:01.178Z,2.80
2019-04-27T17:51:58.590Z,3.30
2019-04-27T17:56:54.681Z,2.90
2019-04-27T18:01:53.845Z,2.57
2019-04-27T18:06:48.537Z,3.60
2019-04-27T18:11:44.571Z,3.23
2019-04-27T18:16:40.592Z,3.20
2019-04-27T18:21:38.667Z,3.67
2019-04-27T18:26:49.233Z,3.33
2019-04-27T18:31:46.407Z,4.00
2019-04-27T18:36:43.808Z,3.40
2019-04-27T18:41:44.417Z,3.37
2019-04-27T18:46:38.807Z,3.60
2019-04-27T18:51:38.437Z,4.30
2019-04-27T18:56:38.574Z,4.03
2019-04-27T19:01:32.303Z,4.00
2019-04-27T19:06:28.991Z,3.30
2019-04-27T19:11:25.050Z,3.93
2019-04-27T19:16:22.449Z,3.40
2019-04-27T19:21:20.102Z,5.40
2019-04-27T19:26:24.427Z,3.17
2019-04-27T19:31:29.094Z,4.07
2019-04-27T19:36:25.183Z,4.20
2019-04-27T19:41:21.101Z,4.30
2019-04-27T19:46:17.019Z,4.17
2019-04-27T19:51:13.574Z,4.90
2019-04-27T19:56:09.535Z,5.73
2019-04-27T20:01:14.252Z,5.07
2019-04-27T20:06:08.043Z,4.83
2019-04-27T20:11:04.114Z,4.57
2019-04-27T20:16:00.953Z,5.13
2019-04-27T20:20:57.773Z,5.23
2019-04-27T20:25:53.689Z,5.40
2019-04-27T20:30:49.619Z,5.80
2019-04-27T20:35:45.566Z,4.90
2019-04-27T20:40:41.614Z,6.40
2019-04-27T20:45:37.690Z,6.40
2019-04-27T20:50:37.186Z,6.13
2019-04-27T20:55:33.229Z,6.53
2019-04-27T21:00:29.151Z,6.33
2019-04-27T21:05:32.768Z,5.87
2019-04-27T21:10:28.691Z,6.23
2019-04-27T21:15:24.707Z,6.63
2019-04-27T21:20:22.084Z,6.40
2019-04-27T21:25:18.013Z,7.93
2019-04-27T21:30:13.947Z,7.20
2019-04-27T21:35:10.968Z,7.53
2019-04-27T21:40:17.978Z,8.57
2019-04-27T21:45:15.203Z,8.90
2019-04-27T21:50:12.141Z,9.67
2019-04-27T21:55:11.491Z,9.10
2019-04-27T22:00:15.923Z,7.60
2019-04-27T22:05:12.311Z,7.97
2019-04-27T22:10:08.362Z,7.90
2019-04-27T22:15:04.391Z,8.30
2019-04-27T22:20:01.605Z,8.03
2019-04-27T22:25:05.608Z,7.83
2019-04-27T22:30:01.735Z,8.03
2019-04-27T22:34:57.658Z,7.60
2019-04-27T22:39:55.482Z,6.90
2019-04-27T22:44:53.380Z,4.93
2019-04-27T22:49:49.300Z,5.60
2019-04-27T22:54:45.211Z,6.13
2019-04-27T23:00:03.306Z,7.07
2019-04-27T23:04:59.431Z,7.30
2019-04-27T23:09:55.366Z,7.13
2019-04-27T23:14:51.266Z,6.90
2019-04-27T23:19:47.411Z,8.90
2019-04-27T23:24:43.332Z,9.40
2019-04-27T23:29:39.217Z,8.67
2019-04-27T23:34:35.231Z,9.83
2019-04-27T23:39:31.146Z,10.90
2019-04-27T23:44:27.060Z,10.37
2019-04-27T23:49:23.003Z,10.83
2019-04-27T23:54:18.919Z,12.43
2019-04-27T23:59:24.749Z,12.00
